createdAt,value
2022-08-24T00:00:35.312Z,97172.91
2022-08-24T00:03:02.730Z,97166.00
2022-08-24T00:05:29.853Z,97183.50
2022-08-24T00:07:56.447Z,97176.38
2022-08-24T00:10:23.368Z,97182.91
2022-08-24T00:12:51.005Z,97174.94
2022-08-24T00:15:18.344Z,97173.75
2022-08-24T00:17:45.055Z,97182.44
2022-08-24T00:20:12.883Z,97179.22
2022-08-24T00:22:41.061Z,97168.38
2022-08-24T00:25:09.756Z,97175.31
2022-08-24T00:27:37.153Z,97171.63
2022-08-24T00:30:07.348Z,97178.56
2022-08-24T00:32:34.005Z,97173.03
2022-08-24T00:35:01.347Z,97163.03
2022-08-24T00:37:28.909Z,97162.88
2022-08-24T00:39:56.130Z,97170.41
2022-08-24T00:42:24.590Z,97167.13
2022-08-24T00:44:52.311Z,97167.75
2022-08-24T00:47:23.858Z,97165.94
2022-08-24T00:49:56.634Z,97156.59
2022-08-24T00:52:32.208Z,97169.72
2022-08-24T00:55:10.180Z,97161.97
2022-08-24T00:57:43.188Z,97165.47
2022-08-24T01:00:17.286Z,97171.94
2022-08-24T01:02:48.455Z,97173.00
2022-08-24T01:05:18.034Z,97178.69
2022-08-24T01:07:45.273Z,97171.09
2022-08-24T01:10:16.675Z,97179.50
2022-08-24T01:12:59.880Z,97180.84
2022-08-24T01:15:32.987Z,97184.81
2022-08-24T01:18:19.899Z,97186.03
2022-08-24T01:20:52.315Z,97184.13
2022-08-24T01:23:39.652Z,97180.88
2022-08-24T01:26:10.245Z,97175.09
2022-08-24T01:28:41.129Z,97182.19
2022-08-24T01:31:08.700Z,97177.13
2022-08-24T01:33:35.546Z,97177.78
2022-08-24T01:36:14.991Z,97177.34
2022-08-24T01:38:42.217Z,97183.44
2022-08-24T01:41:08.859Z,97182.03
2022-08-24T01:43:38.979Z,97185.69
2022-08-24T01:46:05.653Z,97172.63
2022-08-24T01:48:32.256Z,97172.63
2022-08-24T01:50:59.127Z,97172.81
2022-08-24T01:53:25.897Z,97166.09
2022-08-24T01:55:52.576Z,97170.94
2022-08-24T01:58:19.211Z,97166.41
2022-08-24T02:00:46.148Z,97175.50
2022-08-24T02:03:12.923Z,97164.13
2022-08-24T02:05:39.873Z,97171.41
2022-08-24T02:08:06.686Z,97168.28
2022-08-24T02:10:33.345Z,97170.50
2022-08-24T02:13:00.183Z,97173.41
2022-08-24T02:15:30.136Z,97174.25
2022-08-24T02:17:57.475Z,97176.22
2022-08-24T02:20:24.936Z,97183.53
2022-08-24T02:22:52.702Z,97188.59
2022-08-24T02:25:20.004Z,97188.00
2022-08-24T02:27:46.662Z,97185.06
2022-08-24T02:30:15.179Z,97183.06
2022-08-24T02:32:42.260Z,97184.56
2022-08-24T02:35:09.965Z,97181.41
2022-08-24T02:37:43.249Z,97182.25
2022-08-24T02:40:12.567Z,97178.16
2022-08-24T02:42:39.689Z,97171.84
2022-08-24T02:45:07.474Z,97178.63
2022-08-24T02:47:38.831Z,97180.69
2022-08-24T02:50:09.338Z,97180.50
2022-08-24T02:52:37.681Z,97185.16
2022-08-24T02:55:05.889Z,97190.44
2022-08-24T02:57:32.485Z,97192.81
2022-08-24T02:59:59.805Z,97191.25
2022-08-24T03:02:27.198Z,97184.38
2022-08-24T03:04:53.970Z,97190.53
2022-08-24T03:07:20.639Z,97187.81
2022-08-24T03:09:47.297Z,97180.34
2022-08-24T03:12:13.969Z,97185.16
2022-08-24T03:14:40.936Z,97185.78
2022-08-24T03:17:07.615Z,97186.56
2022-08-24T03:19:34.401Z,97180.47
2022-08-24T03:22:01.280Z,97190.84
2022-08-24T03:24:28.246Z,97190.72
2022-08-24T03:26:54.860Z,97195.66
2022-08-24T03:29:21.535Z,97191.97
2022-08-24T03:31:50.657Z,97196.56
2022-08-24T03:34:17.261Z,97196.84
2022-08-24T03:36:47.379Z,97192.22
2022-08-24T03:39:15.822Z,97199.63
2022-08-24T03:41:42.630Z,97195.00
2022-08-24T03:44:09.791Z,97196.72
2022-08-24T03:46:37.829Z,97201.78
2022-08-24T03:49:11.315Z,97203.16
2022-08-24T03:51:38.799Z,97199.31
2022-08-24T03:54:08.155Z,97207.44
2022-08-24T03:56:35.417Z,97209.25
2022-08-24T03:59:01.990Z,97196.66
2022-08-24T04:01:29.012Z,97196.91
2022-08-24T04:03:56.230Z,97205.03
2022-08-24T04:06:23.351Z,97200.06
2022-08-24T04:08:50.233Z,97193.50
2022-08-24T04:11:23.269Z,97196.69
2022-08-24T04:13:53.013Z,97196.41
2022-08-24T04:16:20.908Z,97200.84
2022-08-24T04:18:48.333Z,97200.25
2022-08-24T04:21:27.959Z,97203.25
2022-08-24T04:23:55.801Z,97193.06
2022-08-24T04:26:44.233Z,97195.97
2022-08-24T04:29:12.498Z,97195.16
2022-08-24T04:31:41.281Z,97193.13
2022-08-24T04:34:08.610Z,97202.97
2022-08-24T04:36:36.053Z,97207.50
2022-08-24T04:39:03.515Z,97207.88
2022-08-24T04:41:31.401Z,97203.19
2022-08-24T04:43:59.601Z,97214.59
2022-08-24T04:46:26.975Z,97210.72
2022-08-24T04:48:53.727Z,97219.94
2022-08-24T04:51:21.104Z,97219.94
2022-08-24T04:53:49.057Z,97219.09
2022-08-24T04:56:23.858Z,97226.00
2022-08-24T04:58:52.099Z,97217.47
2022-08-24T05:01:22.164Z,97221.47
2022-08-24T05:03:50.769Z,97227.00
2022-08-24T05:06:20.238Z,97222.44
2022-08-24T05:08:47.656Z,97230.03
2022-08-24T05:11:15.789Z,97229.13
2022-08-24T05:13:42.398Z,97234.06
2022-08-24T05:16:12.632Z,97228.81
2022-08-24T05:18:40.898Z,97232.06
2022-08-24T05:21:15.025Z,97231.09
2022-08-24T05:23:44.007Z,97242.31
2022-08-24T05:26:18.311Z,97232.75
2022-08-24T05:28:45.609Z,97224.88
2022-08-24T05:31:19.052Z,97226.03
2022-08-24T05:33:45.816Z,97226.50
2022-08-24T05:36:32.974Z,97230.69
2022-08-24T05:39:02.082Z,97223.97
2022-08-24T05:41:29.420Z,97231.50
2022-08-24T05:43:56.291Z,97227.78
2022-08-24T05:46:23.374Z,97232.53
2022-08-24T05:48:52.903Z,97228.69
2022-08-24T05:51:20.743Z,97230.22
2022-08-24T05:53:47.678Z,97228.03
2022-08-24T05:56:17.263Z,97227.94
2022-08-24T05:58:45.386Z,97230.81
2022-08-24T06:01:16.380Z,97235.19
2022-08-24T06:03:43.569Z,97224.72
2022-08-24T06:06:11.373Z,97230.31
2022-08-24T06:08:41.617Z,97231.19
2022-08-24T06:11:08.986Z,97229.28
2022-08-24T06:13:36.547Z,97228.41
2022-08-24T06:16:25.352Z,97234.81
2022-08-24T06:18:53.426Z,97234.28
2022-08-24T06:21:28.084Z,97229.03
2022-08-24T06:23:55.987Z,97228.44
2022-08-24T06:26:41.072Z,97227.06
2022-08-24T06:29:08.721Z,97237.69
2022-08-24T06:31:41.907Z,97233.28
2022-08-24T06:34:13.552Z,97229.03
2022-08-24T06:36:40.380Z,97223.09
2022-08-24T06:39:10.016Z,97226.22
2022-08-24T06:41:40.679Z,97219.28
2022-08-24T06:44:08.699Z,97212.66
2022-08-24T06:46:36.506Z,97212.81
2022-08-24T06:49:03.595Z,97211.09
2022-08-24T06:51:31.865Z,97216.00
2022-08-24T06:53:59.095Z,97214.50
2022-08-24T06:56:25.679Z,97216.84
2022-08-24T06:58:52.554Z,97226.34
2022-08-24T07:01:22.949Z,97215.84
2022-08-24T07:03:49.676Z,97221.00
2022-08-24T07:06:18.263Z,97221.63
2022-08-24T07:08:45.216Z,97214.38
2022-08-24T07:11:15.052Z,97220.88
2022-08-24T07:13:42.143Z,97218.00
2022-08-24T07:16:10.127Z,97231.16
2022-08-24T07:18:37.299Z,97229.88
2022-08-24T07:21:04.513Z,97229.38
2022-08-24T07:23:41.425Z,97230.19
2022-08-24T07:26:21.724Z,97239.91
2022-08-24T07:28:54.140Z,97232.91
2022-08-24T07:31:21.296Z,97232.50
2022-08-24T07:33:48.116Z,97229.94
2022-08-24T07:36:21.876Z,97226.81
2022-08-24T07:38:52.345Z,97223.03
2022-08-24T07:44:07.194Z,97233.56
2022-08-24T07:46:33.936Z,97234.34
2022-08-24T07:49:11.034Z,97231.66
2022-08-24T07:51:38.994Z,97236.75
2022-08-24T07:54:13.020Z,97231.09
2022-08-24T07:56:40.767Z,97224.53
2022-08-24T07:59:11.054Z,97227.78
2022-08-24T08:01:40.000Z,97232.03
2022-08-24T08:04:06.712Z,97231.38
2022-08-24T08:06:33.380Z,97239.56
2022-08-24T08:09:01.729Z,97234.50
2022-08-24T08:11:28.433Z,97239.72
2022-08-24T08:13:55.041Z,97237.00
2022-08-24T08:16:21.851Z,97237.63
2022-08-24T08:18:52.416Z,97232.28
2022-08-24T08:21:51.023Z,97228.28
2022-08-24T08:24:21.200Z,97233.72
2022-08-24T08:26:53.062Z,97226.34
2022-08-24T08:29:20.402Z,97230.94
2022-08-24T08:31:47.396Z,97235.38
2022-08-24T08:34:14.325Z,97234.44
2022-08-24T08:36:41.297Z,97234.75
2022-08-24T08:39:09.760Z,97232.91
2022-08-24T08:42:10.344Z,97239.63
2022-08-24T08:44:46.972Z,97231.38
2022-08-24T08:50:40.548Z,97221.00
2022-08-24T08:53:38.784Z,97228.53
2022-08-24T08:56:17.993Z,97221.03
2022-08-24T08:59:07.382Z,97227.84
2022-08-24T09:01:53.506Z,97233.69
2022-08-24T09:04:38.480Z,97224.84
2022-08-24T09:07:27.471Z,97226.72
2022-08-24T09:10:35.540Z,97221.09
2022-08-24T09:13:07.730Z,97225.06
2022-08-24T09:15:37.082Z,97214.50
2022-08-24T09:18:40.948Z,97216.53
2022-08-24T09:21:32.315Z,97214.31
2022-08-24T09:24:00.570Z,97210.53
2022-08-24T09:26:29.254Z,97213.09
2022-08-24T09:29:32.916Z,97206.00
2022-08-24T09:32:13.040Z,97205.81
2022-08-24T09:34:57.205Z,97204.34
2022-08-24T09:37:32.734Z,97214.47
2022-08-24T09:40:28.507Z,97212.97
2022-08-24T09:43:13.378Z,97206.97
2022-08-24T09:46:08.935Z,97202.63
2022-08-24T09:48:50.636Z,97205.88
2022-08-24T09:51:29.189Z,97203.28
2022-08-24T09:54:14.502Z,97204.56
2022-08-24T09:56:45.751Z,97202.13
2022-08-24T09:59:31.139Z,97200.34
2022-08-24T10:02:06.802Z,97199.34
2022-08-24T10:05:00.491Z,97206.03
2022-08-24T10:07:51.718Z,97207.22
2022-08-24T10:10:36.357Z,97203.03
2022-08-24T10:13:21.047Z,97203.19
2022-08-24T10:16:12.819Z,97208.06
2022-08-24T10:19:02.137Z,97192.50
2022-08-24T10:21:51.517Z,97190.69
2022-08-24T10:24:21.232Z,97184.91
2022-08-24T10:27:18.782Z,97182.88
2022-08-24T10:30:26.672Z,97189.53
2022-08-24T10:33:08.479Z,97184.22
2022-08-24T10:35:44.641Z,97182.25
2022-08-24T10:38:42.366Z,97171.38
2022-08-24T10:41:15.632Z,97176.41
2022-08-24T10:43:57.424Z,97171.06
2022-08-24T10:46:45.624Z,97181.47
2022-08-24T10:49:36.416Z,97186.53
2022-08-24T10:52:22.083Z,97176.91
2022-08-24T10:54:48.942Z,97189.03
2022-08-24T10:57:35.736Z,97188.00
2022-08-24T11:00:23.206Z,97185.88
2022-08-24T11:03:15.180Z,97185.59
2022-08-24T11:05:47.320Z,97190.69
2022-08-24T11:08:26.098Z,97189.34
2022-08-24T11:11:22.425Z,97181.47
2022-08-24T11:14:24.039Z,97185.88
2022-08-24T11:16:54.602Z,97189.13
2022-08-24T11:19:26.821Z,97193.78
2022-08-24T11:21:56.273Z,97183.34
2022-08-24T11:24:46.047Z,97178.22
2022-08-24T11:27:24.877Z,97175.06
2022-08-24T11:29:52.156Z,97186.31
2022-08-24T11:33:01.228Z,97180.69
2022-08-24T11:35:37.188Z,97175.25
2022-08-24T11:38:29.126Z,97176.59
2022-08-24T11:41:25.973Z,97176.88
2022-08-24T11:44:05.279Z,97172.97
2022-08-24T11:47:23.526Z,97173.94
2022-08-24T11:50:23.150Z,97166.91
2022-08-24T11:53:00.876Z,97174.16
2022-08-24T11:55:46.920Z,97172.19
2022-08-24T11:58:35.620Z,97168.91
2022-08-24T12:01:14.702Z,97162.63
2022-08-24T12:03:53.533Z,97165.72
2022-08-24T12:06:32.376Z,97161.19
2022-08-24T12:09:25.260Z,97165.06
2022-08-24T12:12:14.529Z,97161.88
2022-08-24T12:15:10.098Z,97171.09
2022-08-24T12:17:54.564Z,97165.63
2022-08-24T12:20:38.561Z,97161.97
2022-08-24T12:23:39.146Z,97161.00
2022-08-24T12:26:14.169Z,97165.78
2022-08-24T12:28:54.603Z,97177.66
2022-08-24T12:31:46.271Z,97173.66
2022-08-24T12:34:24.580Z,97169.03
2022-08-24T12:37:10.682Z,97184.78
2022-08-24T12:39:56.388Z,97181.78
2022-08-24T12:42:33.057Z,97184.78
2022-08-24T12:45:05.335Z,97181.50
2022-08-24T12:47:51.046Z,97180.97
2022-08-24T12:50:42.678Z,97184.50
2022-08-24T12:53:26.365Z,97184.75
2022-08-24T12:56:18.664Z,97185.59
2022-08-24T12:58:55.322Z,97183.97
2022-08-24T13:01:26.424Z,97183.69
2022-08-24T13:04:07.788Z,97181.25
2022-08-24T13:06:45.077Z,97178.84
2022-08-24T13:09:27.792Z,97181.00
2022-08-24T13:11:57.130Z,97179.38
2022-08-24T13:14:26.784Z,97183.69
2022-08-24T13:16:56.507Z,97183.16
2022-08-24T13:19:23.010Z,97183.19
2022-08-24T13:21:59.716Z,97183.13
2022-08-24T13:24:29.535Z,97179.16
2022-08-24T13:26:58.210Z,97181.00
2022-08-24T13:29:29.547Z,97185.31
2022-08-24T13:31:59.710Z,97177.22
2022-08-24T13:34:39.732Z,97179.13
2022-08-24T13:37:10.434Z,97175.88
2022-08-24T13:39:43.111Z,97168.53
2022-08-24T13:42:47.197Z,97170.19
2022-08-24T13:45:42.770Z,97181.00
2022-08-24T13:48:40.054Z,97171.81
2022-08-24T13:51:45.343Z,97175.06
2022-08-24T13:54:45.290Z,97175.06
2022-08-24T13:57:14.935Z,97173.72
2022-08-24T14:00:01.432Z,97172.34
2022-08-24T14:02:43.148Z,97161.81
2022-08-24T14:05:38.435Z,97170.75
2022-08-24T14:08:23.574Z,97170.75
2022-08-24T14:11:16.946Z,97163.50
2022-08-24T14:13:52.254Z,97159.38
2022-08-24T14:17:08.195Z,97160.75
2022-08-24T14:20:11.244Z,97159.66
2022-08-24T14:22:56.531Z,97156.72
2022-08-24T14:25:27.097Z,97157.75
2022-08-24T14:27:59.508Z,97156.91
2022-08-24T14:30:26.002Z,97156.09
2022-08-24T14:33:01.740Z,97166.66
2022-08-24T14:35:40.310Z,97163.66
2022-08-24T14:38:20.385Z,97156.16
2022-08-24T14:40:59.271Z,97165.03
2022-08-24T14:43:52.998Z,97162.69
2022-08-24T14:46:33.725Z,97157.28
2022-08-24T14:49:18.582Z,97153.22
2022-08-24T14:51:56.667Z,97162.13
2022-08-24T14:54:41.854Z,97154.03
2022-08-24T14:57:28.266Z,97146.97
2022-08-24T15:00:28.988Z,97143.53
2022-08-24T15:02:55.495Z,97141.81
2022-08-24T15:05:33.116Z,97141.56
2022-08-24T15:08:03.249Z,97139.41
2022-08-24T15:10:39.201Z,97137.84
2022-08-24T15:13:29.187Z,97141.66
2022-08-24T15:16:14.228Z,97131.94
2022-08-24T15:18:59.695Z,97132.50
2022-08-24T15:21:35.210Z,97126.03
2022-08-24T15:24:47.311Z,97126.03
2022-08-24T15:27:45.285Z,97125.47
2022-08-24T15:30:27.427Z,97119.53
2022-08-24T15:33:07.542Z,97118.16
2022-08-24T15:35:39.559Z,97121.09
2022-08-24T15:38:22.645Z,97115.22
2022-08-24T15:41:02.277Z,97123.28
2022-08-24T15:43:29.053Z,97122.22
2022-08-24T15:45:56.016Z,97124.59
2022-08-24T15:48:25.919Z,97119.28
2022-08-24T15:50:54.439Z,97119.00
2022-08-24T15:53:50.345Z,97123.03
2022-08-24T15:56:35.423Z,97122.53
2022-08-24T15:59:13.292Z,97109.84
2022-08-24T16:01:59.037Z,97113.06
2022-08-24T16:04:47.921Z,97112.84
2022-08-24T16:07:25.921Z,97121.94
2022-08-24T16:10:11.179Z,97108.66
2022-08-24T16:12:38.950Z,97114.72
2022-08-24T16:15:17.984Z,97108.81
2022-08-24T16:17:56.234Z,97105.03
2022-08-24T16:20:22.761Z,97119.56
2022-08-24T16:23:06.395Z,97114.72
2022-08-24T16:25:50.551Z,97110.91
2022-08-24T16:28:21.469Z,97109.84
2022-08-24T16:30:57.909Z,97108.22
2022-08-24T16:33:43.719Z,97120.66
2022-08-24T16:36:18.207Z,97116.28
2022-08-24T16:38:50.813Z,97114.19
2022-08-24T16:41:24.550Z,97113.13
2022-08-24T16:43:51.722Z,97117.69
2022-08-24T16:46:23.211Z,97116.06
2022-08-24T16:48:49.968Z,97112.06
2022-08-24T16:51:16.560Z,97111.50
2022-08-24T16:53:43.132Z,97109.63
2022-08-24T16:56:12.487Z,97108.81
2022-08-24T16:58:41.620Z,97113.94
2022-08-24T17:01:08.296Z,97106.94
2022-08-24T17:03:35.025Z,97097.53
2022-08-24T17:06:01.667Z,97107.22
2022-08-24T17:08:28.874Z,97096.44
2022-08-24T17:10:55.849Z,97103.34
2022-08-24T17:13:46.139Z,97102.84
2022-08-24T17:16:11.832Z,97108.47
2022-08-24T17:18:40.081Z,97102.81
2022-08-24T17:21:06.735Z,97102.00
2022-08-24T17:23:34.580Z,97108.13
2022-08-24T17:26:03.372Z,97106.75
2022-08-24T17:28:31.110Z,97112.72
2022-08-24T17:30:57.751Z,97106.25
2022-08-24T17:33:24.387Z,97112.97
2022-08-24T17:35:54.389Z,97116.69
2022-08-24T17:38:21.570Z,97117.69
2022-08-24T17:40:49.309Z,97117.94
2022-08-24T17:43:16.518Z,97114.94
2022-08-24T17:45:43.507Z,97115.22
2022-08-24T17:48:14.053Z,97120.03
2022-08-24T17:50:40.626Z,97125.31
2022-08-24T17:53:08.984Z,97128.78
2022-08-24T17:55:35.746Z,97126.47
2022-08-24T17:58:03.022Z,97131.25
2022-08-24T18:00:29.733Z,97132.69
2022-08-24T18:02:56.393Z,97131.81
2022-08-24T18:05:23.125Z,97135.25
2022-08-24T18:07:53.913Z,97137.25
2022-08-24T18:10:25.256Z,97139.91
2022-08-24T18:12:52.222Z,97136.03
2022-08-24T18:15:18.996Z,97144.63
2022-08-24T18:17:49.860Z,97143.19
2022-08-24T18:20:21.608Z,97147.22
2022-08-24T18:22:52.731Z,97145.53
2022-08-24T18:25:22.913Z,97152.41
2022-08-24T18:27:51.969Z,97156.84
2022-08-24T18:30:30.799Z,97162.38
2022-08-24T18:32:59.940Z,97162.66
2022-08-24T18:35:26.568Z,97165.72
2022-08-24T18:37:53.158Z,97162.56
2022-08-24T18:40:20.987Z,97168.25
2022-08-24T18:42:50.732Z,97170.63
2022-08-24T18:45:18.216Z,97180.13
2022-08-24T18:47:52.959Z,97180.50
2022-08-24T18:50:21.245Z,97185.09
2022-08-24T18:52:48.301Z,97187.19
2022-08-24T18:55:16.552Z,97184.53
2022-08-24T18:57:43.202Z,97192.56
2022-08-24T19:00:10.651Z,97191.94
2022-08-24T19:02:38.132Z,97198.00
2022-08-24T19:05:08.202Z,97192.09
2022-08-24T19:07:39.549Z,97195.47
2022-08-24T19:10:07.315Z,97200.81
2022-08-24T19:12:38.994Z,97201.66
2022-08-24T19:15:09.523Z,97196.84
2022-08-24T19:17:56.619Z,97200.31
2022-08-24T19:20:23.275Z,97202.56
2022-08-24T19:22:52.632Z,97202.56
2022-08-24T19:25:24.409Z,97205.28
2022-08-24T19:27:53.788Z,97195.72
2022-08-24T19:30:21.804Z,97201.56
2022-08-24T19:32:48.957Z,97199.25
2022-08-24T19:35:16.287Z,97196.50
2022-08-24T19:37:44.670Z,97190.34
2022-08-24T19:40:11.799Z,97194.41
2022-08-24T19:42:38.888Z,97200.31
2022-08-24T19:45:25.498Z,97196.69
2022-08-24T19:47:52.381Z,97202.38
2022-08-24T19:50:20.345Z,97206.25
2022-08-24T19:52:48.598Z,97195.19
2022-08-24T19:55:15.545Z,97198.13
2022-08-24T19:57:56.033Z,97205.28
2022-08-24T20:00:35.938Z,97199.03
2022-08-24T20:03:03.294Z,97199.84
2022-08-24T20:05:30.057Z,97203.66
2022-08-24T20:07:58.014Z,97200.31
2022-08-24T20:10:25.661Z,97205.56
2022-08-24T20:12:52.711Z,97206.19
2022-08-24T20:15:21.214Z,97206.16
2022-08-24T20:17:49.206Z,97207.22
2022-08-24T20:20:19.078Z,97213.50
2022-08-24T20:22:46.001Z,97208.63
2022-08-24T20:25:12.710Z,97213.16
2022-08-24T20:27:39.609Z,97219.09
2022-08-24T20:30:08.183Z,97209.31
2022-08-24T20:32:34.814Z,97225.09
2022-08-24T20:35:02.670Z,97223.81
2022-08-24T20:37:32.122Z,97228.91
2022-08-24T20:39:59.211Z,97217.59
2022-08-24T20:42:27.718Z,97219.81
2022-08-24T20:44:55.237Z,97215.97
2022-08-24T20:47:22.529Z,97221.25
2022-08-24T20:49:50.000Z,97230.41
2022-08-24T20:52:16.820Z,97225.25
2022-08-24T20:54:43.722Z,97221.06
2022-08-24T20:57:14.169Z,97228.50
2022-08-24T20:59:40.827Z,97225.84
2022-08-24T21:02:07.461Z,97227.56
2022-08-24T21:04:34.413Z,97226.34
2022-08-24T21:07:01.783Z,97223.25
2022-08-24T21:09:28.522Z,97230.28
2022-08-24T21:11:55.123Z,97222.31
2022-08-24T21:14:21.744Z,97226.16
2022-08-24T21:16:48.534Z,97225.34
2022-08-24T21:19:18.659Z,97224.63
2022-08-24T21:21:46.993Z,97222.75
2022-08-24T21:24:14.603Z,97217.91
2022-08-24T21:26:41.451Z,97221.38
2022-08-24T21:29:10.233Z,97224.63
2022-08-24T21:31:37.769Z,97223.47
2022-08-24T21:34:23.568Z,97224.03
2022-08-24T21:36:52.542Z,97235.72
2022-08-24T21:39:19.598Z,97229.94
2022-08-24T21:41:46.482Z,97238.97
2022-08-24T21:44:13.166Z,97234.03
2022-08-24T21:46:40.451Z,97239.59
2022-08-24T21:49:07.305Z,97241.44
2022-08-24T21:51:38.793Z,97236.09
2022-08-24T21:54:05.419Z,97232.72
2022-08-24T21:56:33.240Z,97232.44
2022-08-24T21:59:00.462Z,97231.78
2022-08-24T22:01:28.872Z,97233.34
2022-08-24T22:03:56.008Z,97226.84
2022-08-24T22:06:22.644Z,97232.03
2022-08-24T22:08:49.270Z,97220.13
2022-08-24T22:11:18.683Z,97222.56
2022-08-24T22:13:46.307Z,97224.03
2022-08-24T22:16:13.827Z,97219.47
2022-08-24T22:18:40.919Z,97206.88
2022-08-24T22:21:18.203Z,97215.91
2022-08-24T22:23:44.918Z,97204.34
2022-08-24T22:26:12.262Z,97200.28
2022-08-24T22:28:41.820Z,97205.47
2022-08-24T22:31:21.358Z,97200.28
2022-08-24T22:33:49.044Z,97200.28
2022-08-24T22:36:16.258Z,97198.16
2022-08-24T22:38:43.662Z,97197.53
2022-08-24T22:41:10.426Z,97197.31
2022-08-24T22:43:55.850Z,97194.44
2022-08-24T22:46:22.928Z,97199.31
2022-08-24T22:48:49.644Z,97207.31
2022-08-24T22:51:16.337Z,97200.34
2022-08-24T22:53:43.150Z,97200.81
2022-08-24T22:56:23.664Z,97197.38
2022-08-24T22:58:50.617Z,97197.22
2022-08-24T23:01:30.192Z,97199.22
2022-08-24T23:03:59.872Z,97201.66
2022-08-24T23:06:27.930Z,97199.69
2022-08-24T23:08:54.972Z,97200.88
2022-08-24T23:11:27.218Z,97198.56
2022-08-24T23:13:59.198Z,97197.16
2022-08-24T23:16:26.987Z,97195.16
2022-08-24T23:19:13.223Z,97195.63
2022-08-24T23:21:41.009Z,97196.47
2022-08-24T23:24:09.735Z,97193.66
2022-08-24T23:26:40.987Z,97192.78
2022-08-24T23:29:09.458Z,97191.38
2022-08-24T23:31:36.748Z,97198.25
2022-08-24T23:34:03.954Z,97197.41
2022-08-24T23:36:31.053Z,97185.34
2022-08-24T23:38:58.977Z,97183.97
2022-08-24T23:41:28.807Z,97183.19
2022-08-24T23:43:56.246Z,97176.25
2022-08-24T23:46:24.125Z,97172.13
2022-08-24T23:48:55.033Z,97167.69
2022-08-24T23:51:24.286Z,97166.66
2022-08-24T23:53:51.869Z,97166.22
2022-08-24T23:56:25.486Z,97163.16
2022-08-24T23:58:53.179Z,97157.47
